createdAt,value
2022-09-03T00:01:03.097Z,84.67
2022-09-03T00:03:47.496Z,84.82
2022-09-03T00:06:30.407Z,85.53
2022-09-03T00:09:31.680Z,85.59
2022-09-03T00:12:20.074Z,86.07
2022-09-03T00:15:04.243Z,84.88
2022-09-03T00:17:42.242Z,84.92
2022-09-03T00:20:36.833Z,84.33
2022-09-03T00:23:21.776Z,84.39
2022-09-03T00:26:17.524Z,85.00
2022-09-03T00:29:18.190Z,85.86
2022-09-03T00:31:58.777Z,86.77
2022-09-03T00:34:36.248Z,86.59
2022-09-03T00:37:03.816Z,86.48
2022-09-03T00:39:31.111Z,86.42
2022-09-03T00:42:38.595Z,87.29
2022-09-03T00:45:34.019Z,86.87
2022-09-03T00:48:39.848Z,88.15
2022-09-03T00:51:50.111Z,88.07
2022-09-03T00:55:18.428Z,88.73
2022-09-03T00:58:07.014Z,89.89
2022-09-03T01:00:43.798Z,90.27
2022-09-03T01:04:06.583Z,90.08
2022-09-03T01:07:09.435Z,90.81
2022-09-03T01:10:39.700Z,90.72
2022-09-03T01:13:27.980Z,91.34
2022-09-03T01:16:44.544Z,91.62
2022-09-03T01:20:10.975Z,91.98
2022-09-03T01:23:20.570Z,92.02
2022-09-03T01:26:27.576Z,91.65
2022-09-03T01:29:28.481Z,91.41
2022-09-03T01:32:59.747Z,91.17
2022-09-03T01:36:32.252Z,91.50
2022-09-03T01:39:20.766Z,91.25
2022-09-03T01:42:54.469Z,91.67
2022-09-03T01:45:45.196Z,91.83
2022-09-03T01:48:51.617Z,90.57
2022-09-03T01:51:29.584Z,90.55
2022-09-03T01:54:41.608Z,90.82
2022-09-03T01:57:46.002Z,91.18
2022-09-03T02:00:23.401Z,91.65
2022-09-03T02:02:53.489Z,92.51
2022-09-03T02:05:29.295Z,91.61
2022-09-03T02:08:09.556Z,92.25
2022-09-03T02:10:50.967Z,92.56
2022-09-03T02:13:29.306Z,91.13
2022-09-03T02:16:14.123Z,90.79
2022-09-03T02:18:51.104Z,91.19
2022-09-03T02:21:25.528Z,91.03
2022-09-03T02:23:53.177Z,91.77
2022-09-03T02:26:25.433Z,91.24
2022-09-03T02:28:55.956Z,91.54
2022-09-03T02:31:23.058Z,91.96
2022-09-03T02:33:51.887Z,92.17
2022-09-03T02:36:30.838Z,91.83
2022-09-03T02:38:58.785Z,93.01
2022-09-03T02:41:27.536Z,92.05
2022-09-03T02:44:14.274Z,91.83
2022-09-03T02:46:52.071Z,91.25
2022-09-03T02:49:19.054Z,92.16
2022-09-03T02:51:46.610Z,92.32
2022-09-03T02:54:16.687Z,91.94
2022-09-03T02:56:48.441Z,92.96
2022-09-03T02:59:18.043Z,92.68
2022-09-03T03:01:46.715Z,92.81
2022-09-03T03:04:15.356Z,92.80
2022-09-03T03:06:42.365Z,93.81
2022-09-03T03:09:14.766Z,94.18
2022-09-03T03:11:41.824Z,93.62
2022-09-03T03:14:09.060Z,93.84
2022-09-03T03:16:37.134Z,93.87
2022-09-03T03:19:04.540Z,94.00
2022-09-03T03:21:31.525Z,93.52
2022-09-03T03:23:58.560Z,91.70
2022-09-03T03:26:25.584Z,91.55
2022-09-03T03:29:04.819Z,90.68
2022-09-03T03:31:33.558Z,90.65
2022-09-03T03:34:03.913Z,89.87
2022-09-03T03:36:34.111Z,88.85
2022-09-03T03:39:02.364Z,88.93
2022-09-03T03:41:34.478Z,89.16
2022-09-03T03:44:08.995Z,89.23
2022-09-03T03:46:42.082Z,89.89
2022-09-03T03:49:11.167Z,89.68
2022-09-03T03:51:40.239Z,88.94
2022-09-03T03:54:07.540Z,88.60
2022-09-03T03:56:35.419Z,89.37
2022-09-03T03:59:04.524Z,88.89
2022-09-03T04:01:32.057Z,88.46
2022-09-03T04:04:00.649Z,88.99
2022-09-03T04:06:28.896Z,89.45
2022-09-03T04:08:56.046Z,89.73
2022-09-03T04:11:26.071Z,88.52
2022-09-03T04:13:54.383Z,88.30
2022-09-03T04:16:27.954Z,89.04
2022-09-03T04:18:57.364Z,88.71
2022-09-03T04:21:31.412Z,88.07
2022-09-03T04:23:59.457Z,87.70
2022-09-03T04:26:33.424Z,87.58
2022-09-03T04:29:08.262Z,87.61
2022-09-03T04:31:38.776Z,88.14
2022-09-03T04:34:07.271Z,88.05
2022-09-03T04:36:35.193Z,87.82
2022-09-03T04:39:02.915Z,88.04
2022-09-03T04:41:32.327Z,88.72
2022-09-03T04:44:00.904Z,88.72
2022-09-03T04:46:33.954Z,87.88
2022-09-03T04:49:02.755Z,88.46
2022-09-03T04:51:31.899Z,87.61
2022-09-03T04:54:02.832Z,87.02
2022-09-03T04:56:34.707Z,87.26
2022-09-03T04:59:08.233Z,87.15
2022-09-03T05:01:39.628Z,87.33
2022-09-03T05:04:09.034Z,87.08
2022-09-03T05:06:37.736Z,86.42
2022-09-03T05:09:06.775Z,87.12
2022-09-03T05:11:33.818Z,87.02
2022-09-03T05:14:01.351Z,87.79
2022-09-03T05:16:31.132Z,86.91
2022-09-03T05:19:01.464Z,86.95
2022-09-03T05:21:30.806Z,87.21
2022-09-03T05:24:01.605Z,87.15
2022-09-03T05:26:36.156Z,86.99
2022-09-03T05:29:09.727Z,86.85
2022-09-03T05:31:39.722Z,86.99
2022-09-03T05:34:10.155Z,86.54
2022-09-03T05:36:41.033Z,86.99
2022-09-03T05:39:08.029Z,87.75
2022-09-03T05:41:35.573Z,86.45
2022-09-03T05:44:04.180Z,87.01
2022-09-03T05:46:37.029Z,87.75
2022-09-03T05:49:08.248Z,86.77
2022-09-03T05:51:42.597Z,87.35
2022-09-03T05:54:11.297Z,87.83
2022-09-03T05:56:41.146Z,87.24
2022-09-03T05:59:11.232Z,88.23
2022-09-03T06:01:50.316Z,87.65
2022-09-03T06:04:20.635Z,86.93
2022-09-03T06:06:49.896Z,87.60
2022-09-03T06:09:23.367Z,88.33
2022-09-03T06:11:52.566Z,87.75
2022-09-03T06:14:20.575Z,86.23
2022-09-03T06:16:50.671Z,87.53
2022-09-03T06:19:18.164Z,88.02
2022-09-03T06:21:47.695Z,88.67
2022-09-03T06:24:26.397Z,89.77
2022-09-03T06:26:58.299Z,87.37
2022-09-03T06:29:25.511Z,88.38
2022-09-03T06:31:52.601Z,85.95
2022-09-03T06:34:22.662Z,85.88
2022-09-03T06:36:49.806Z,87.77
2022-09-03T06:39:16.906Z,86.87
2022-09-03T06:41:45.973Z,86.35
2022-09-03T06:44:13.265Z,86.44
2022-09-03T06:46:45.071Z,85.81
2022-09-03T06:49:15.046Z,86.60
2022-09-03T06:51:44.106Z,86.45
2022-09-03T06:54:13.272Z,86.19
2022-09-03T06:56:41.953Z,86.42
2022-09-03T06:59:15.381Z,85.79
2022-09-03T07:01:46.261Z,85.40
2022-09-03T07:04:20.441Z,86.62
2022-09-03T07:06:48.138Z,83.87
2022-09-03T07:09:19.227Z,82.60
2022-09-03T07:11:48.572Z,83.77
2022-09-03T07:14:19.852Z,83.47
2022-09-03T07:16:50.410Z,82.59
2022-09-03T07:19:17.882Z,82.75
2022-09-03T07:21:50.003Z,81.22
2022-09-03T07:24:22.356Z,81.42
2022-09-03T07:26:50.375Z,83.44
2022-09-03T07:29:20.846Z,81.13
2022-09-03T07:31:53.682Z,79.78
2022-09-03T07:34:25.339Z,81.16
2022-09-03T07:36:53.404Z,81.42
2022-09-03T07:39:20.695Z,79.64
2022-09-03T07:41:48.383Z,79.05
2022-09-03T07:44:19.995Z,78.20
2022-09-03T07:46:51.283Z,80.92
2022-09-03T07:49:21.202Z,77.88
2022-09-03T07:51:50.989Z,77.93
2022-09-03T07:54:18.209Z,77.29
2022-09-03T07:56:45.223Z,78.64
2022-09-03T07:59:12.251Z,78.97
2022-09-03T08:01:41.529Z,79.25
2022-09-03T08:04:11.085Z,77.18
2022-09-03T08:06:39.795Z,78.50
2022-09-03T08:09:13.812Z,73.25
2022-09-03T08:11:44.014Z,71.11
2022-09-03T08:14:14.919Z,69.79
2022-09-03T08:16:50.080Z,69.34
2022-09-03T08:19:18.943Z,68.09
2022-09-03T08:21:47.463Z,66.71
2022-09-03T08:24:21.369Z,65.72
2022-09-03T08:26:52.137Z,66.52
2022-09-03T08:29:21.479Z,65.13
2022-09-03T08:31:49.171Z,64.87
2022-09-03T08:34:18.015Z,63.25
2022-09-03T08:36:47.249Z,64.63
2022-09-03T08:39:14.701Z,60.49
2022-09-03T08:41:53.569Z,60.23
2022-09-03T08:44:49.908Z,58.62
2022-09-03T08:48:05.056Z,59.25
2022-09-03T08:50:43.574Z,59.32
2022-09-03T08:53:29.124Z,56.06
2022-09-03T08:56:12.789Z,55.60
2022-09-03T08:58:44.125Z,56.74
2022-09-03T09:01:34.284Z,57.85
2022-09-03T09:04:43.129Z,53.48
2022-09-03T09:07:45.449Z,52.41
2022-09-03T09:11:02.645Z,53.12
2022-09-03T09:14:09.921Z,53.66
2022-09-03T09:16:59.137Z,52.74
2022-09-03T09:20:09.839Z,52.04
2022-09-03T09:22:50.155Z,53.16
2022-09-03T09:25:26.389Z,55.07
2022-09-03T09:28:16.799Z,53.56
2022-09-03T09:30:50.254Z,54.59
2022-09-03T09:33:21.015Z,53.39
2022-09-03T09:35:50.220Z,49.86
2022-09-03T09:38:36.516Z,49.03
2022-09-03T09:41:27.516Z,48.03
2022-09-03T09:44:05.727Z,49.57
2022-09-03T09:46:42.347Z,46.35
2022-09-03T09:49:51.924Z,49.54
2022-09-03T09:52:26.072Z,47.71
2022-09-03T09:55:10.296Z,46.50
2022-09-03T09:57:38.902Z,45.66
2022-09-03T10:00:18.578Z,45.74
2022-09-03T10:02:55.012Z,45.00
2022-09-03T10:05:31.017Z,45.31
2022-09-03T10:08:22.107Z,48.30
2022-09-03T10:10:51.918Z,46.30
2022-09-03T10:13:41.923Z,49.49
2022-09-03T10:16:29.611Z,47.61
2022-09-03T10:19:21.164Z,45.10
2022-09-03T10:22:18.090Z,45.83
2022-09-03T10:25:03.402Z,44.49
2022-09-03T10:27:31.987Z,46.10
2022-09-03T10:30:00.872Z,44.80
2022-09-03T10:32:46.280Z,45.08
2022-09-03T10:35:38.138Z,42.74
2022-09-03T10:38:34.778Z,43.33
2022-09-03T10:41:22.328Z,42.85
2022-09-03T10:44:23.062Z,37.59
2022-09-03T10:47:33.106Z,36.74
2022-09-03T10:50:34.308Z,37.98
2022-09-03T10:53:07.187Z,39.70
2022-09-03T10:56:15.451Z,37.34
2022-09-03T10:58:59.055Z,36.89
2022-09-03T11:01:50.765Z,36.53
2022-09-03T11:05:06.091Z,37.61
2022-09-03T11:08:03.378Z,37.04
2022-09-03T11:10:44.318Z,38.55
2022-09-03T11:13:46.194Z,38.40
2022-09-03T11:16:27.095Z,38.83
2022-09-03T11:19:12.478Z,40.21
2022-09-03T11:21:42.538Z,39.63
2022-09-03T11:24:23.573Z,40.46
2022-09-03T11:27:22.492Z,39.60
2022-09-03T11:30:07.340Z,39.63
2022-09-03T11:32:55.671Z,38.76
2022-09-03T11:35:31.852Z,37.50
2022-09-03T11:38:15.326Z,37.70
2022-09-03T11:41:27.151Z,37.04
2022-09-03T11:43:55.357Z,37.57
2022-09-03T11:46:22.378Z,37.79
2022-09-03T11:48:55.678Z,38.02
2022-09-03T11:51:32.318Z,37.47
2022-09-03T11:54:25.942Z,36.74
2022-09-03T11:57:16.376Z,37.84
2022-09-03T11:59:45.446Z,38.01
2022-09-03T12:02:31.059Z,38.75
2022-09-03T12:06:09.886Z,37.40
2022-09-03T12:09:14.523Z,36.59
2022-09-03T12:12:08.594Z,38.21
2022-09-03T12:15:14.992Z,36.86
2022-09-03T12:18:20.988Z,36.81
2022-09-03T12:21:00.978Z,37.98
2022-09-03T12:23:42.351Z,37.62
2022-09-03T12:26:17.785Z,36.68
2022-09-03T12:29:06.718Z,38.54
2022-09-03T12:31:53.045Z,37.81
2022-09-03T12:34:21.481Z,40.62
2022-09-03T12:36:54.290Z,37.27
2022-09-03T12:42:31.738Z,36.98
2022-09-03T12:45:16.636Z,38.06
2022-09-03T12:47:45.172Z,36.96
2022-09-03T12:50:24.524Z,36.71
2022-09-03T12:53:04.105Z,37.84
2022-09-03T12:55:51.793Z,37.14
2022-09-03T12:58:32.059Z,37.46
2022-09-03T13:01:31.387Z,39.29
2022-09-03T13:04:17.128Z,36.02
2022-09-03T13:07:20.532Z,35.08
2022-09-03T13:09:49.214Z,35.71
2022-09-03T13:12:51.132Z,36.83
2022-09-03T13:15:27.039Z,38.79
2022-09-03T13:18:42.840Z,36.77
2022-09-03T13:21:27.980Z,36.79
2022-09-03T13:24:39.690Z,36.08
2022-09-03T13:27:27.474Z,37.25
2022-09-03T13:30:11.894Z,36.49
2022-09-03T13:33:09.485Z,37.35
2022-09-03T13:36:46.026Z,37.71
2022-09-03T13:39:51.324Z,37.73
2022-09-03T13:42:45.735Z,36.58
2022-09-03T13:46:02.206Z,39.04
2022-09-03T13:49:04.646Z,36.24
2022-09-03T13:52:04.196Z,38.86
2022-09-03T13:54:54.702Z,37.63
2022-09-03T13:57:28.238Z,35.74
2022-09-03T14:00:25.166Z,35.10
2022-09-03T14:03:32.687Z,34.67
2022-09-03T14:06:33.314Z,35.93
2022-09-03T14:09:36.219Z,33.47
2022-09-03T14:12:34.435Z,33.92
2022-09-03T14:15:35.938Z,33.21
2022-09-03T14:18:58.492Z,34.39
2022-09-03T14:21:59.841Z,34.27
2022-09-03T14:24:45.991Z,35.09
2022-09-03T14:27:13.967Z,34.31
2022-09-03T14:57:27.720Z,32.05
2022-09-03T15:00:29.539Z,31.57
2022-09-03T15:07:59.620Z,29.46
2022-09-03T15:10:56.875Z,29.03
2022-09-03T15:13:54.681Z,30.12
2022-09-03T15:17:14.189Z,32.25
2022-09-03T15:20:07.518Z,31.82
2022-09-03T15:23:26.716Z,32.98
2022-09-03T15:26:37.359Z,32.03
2022-09-03T15:29:35.072Z,33.27
2022-09-03T15:32:48.054Z,32.18
2022-09-03T15:36:16.317Z,31.60
2022-09-03T15:39:23.470Z,31.96
2022-09-03T15:42:27.393Z,30.98
2022-09-03T15:45:15.982Z,31.33
2022-09-03T15:47:51.940Z,30.68
2022-09-03T15:51:10.651Z,31.70
2022-09-03T15:53:47.581Z,33.48
2022-09-03T15:56:32.455Z,33.89
2022-09-03T15:59:36.040Z,34.19
2022-09-03T16:02:52.460Z,37.14
2022-09-03T16:05:45.656Z,36.90
2022-09-03T16:08:43.764Z,37.10
2022-09-03T16:11:40.568Z,39.37
2022-09-03T16:14:28.877Z,38.19
2022-09-03T16:17:07.336Z,39.31
2022-09-03T16:20:10.257Z,39.35
2022-09-03T16:23:27.562Z,40.10
2022-09-03T16:26:27.593Z,40.35
2022-09-03T16:29:07.575Z,40.00
2022-09-03T16:31:55.500Z,41.15
2022-09-03T16:35:06.334Z,41.73
2022-09-03T16:38:01.219Z,40.44
2022-09-03T16:41:16.902Z,41.56
2022-09-03T16:44:38.777Z,41.55
2022-09-03T16:47:50.298Z,41.57
2022-09-03T16:51:21.801Z,42.74
2022-09-03T16:54:57.252Z,42.35
2022-09-03T16:58:34.811Z,43.02
2022-09-03T17:02:39.598Z,43.93
2022-09-03T17:06:07.244Z,44.23
2022-09-03T17:09:23.725Z,44.28
2022-09-03T17:12:21.469Z,44.39
2022-09-03T17:15:11.940Z,45.01
2022-09-03T17:18:26.680Z,45.57
2022-09-03T17:21:55.047Z,47.29
2022-09-03T17:24:51.406Z,47.38
2022-09-03T17:27:31.810Z,47.64
2022-09-03T17:30:40.715Z,47.89
2022-09-03T17:33:40.205Z,48.29
2022-09-03T17:36:27.401Z,47.11
2022-09-03T17:40:01.888Z,47.23
2022-09-03T17:43:35.060Z,46.89
2022-09-03T17:46:25.363Z,48.15
2022-09-03T17:49:02.911Z,48.63
2022-09-03T17:52:11.606Z,48.34
2022-09-03T17:54:50.129Z,48.39
2022-09-03T17:57:31.901Z,49.46
2022-09-03T18:00:07.192Z,49.05
2022-09-03T18:03:01.919Z,49.24
2022-09-03T18:05:48.214Z,49.72
2022-09-03T18:08:43.811Z,49.62
2022-09-03T18:11:37.396Z,50.20
2022-09-03T18:14:51.633Z,51.35
2022-09-03T18:17:57.995Z,51.15
2022-09-03T18:21:23.948Z,50.86
2022-09-03T18:24:43.018Z,50.71
2022-09-03T18:27:51.177Z,50.33
2022-09-03T18:30:38.220Z,49.93
2022-09-03T18:33:24.161Z,49.46
2022-09-03T18:36:09.891Z,49.96
2022-09-03T18:38:59.218Z,50.41
2022-09-03T18:42:22.303Z,51.38
2022-09-03T18:46:50.751Z,51.27
2022-09-03T18:49:48.699Z,53.41
2022-09-03T18:53:00.856Z,53.77
2022-09-03T18:56:20.928Z,53.39
2022-09-03T18:59:48.453Z,55.01
2022-09-03T19:03:10.137Z,53.13
2022-09-03T19:06:37.412Z,52.83
2022-09-03T19:10:08.892Z,53.87
2022-09-03T19:13:20.204Z,52.86
2022-09-03T19:17:20.023Z,54.06
2022-09-03T19:20:43.786Z,53.22
2022-09-03T19:27:56.970Z,53.98
2022-09-03T20:02:06.593Z,55.33
2022-09-03T20:05:22.253Z,55.14
2022-09-03T20:08:15.586Z,54.88
2022-09-03T20:10:50.066Z,55.28
2022-09-03T20:13:23.594Z,55.06
2022-09-03T20:16:36.139Z,55.46
2022-09-03T20:19:31.829Z,54.40
2022-09-03T20:23:01.477Z,54.12
2022-09-03T20:26:26.255Z,54.52
2022-09-03T20:29:41.729Z,54.56
2022-09-03T20:32:56.903Z,54.69
2022-09-03T20:36:05.265Z,56.54
2022-09-03T20:39:07.054Z,54.66
2022-09-03T20:42:08.956Z,55.06
2022-09-03T20:45:16.003Z,54.13
2022-09-03T20:48:22.156Z,53.99
2022-09-03T20:51:16.156Z,56.06
2022-09-03T20:54:19.271Z,55.15
2022-09-03T20:56:51.451Z,54.71
2022-09-03T20:59:44.579Z,54.46
2022-09-03T21:03:07.633Z,55.22
2022-09-03T21:06:17.254Z,55.73
2022-09-03T21:09:09.980Z,56.82
2022-09-03T21:12:45.573Z,55.83
2022-09-03T21:15:36.431Z,55.78
2022-09-03T21:18:29.847Z,56.30
2022-09-03T21:21:45.709Z,56.60
2022-09-03T21:24:58.521Z,56.47
2022-09-03T21:27:43.804Z,56.05
2022-09-03T21:30:19.576Z,55.94
2022-09-03T21:33:06.694Z,56.05
2022-09-03T21:35:44.535Z,55.85
2022-09-03T21:38:28.243Z,56.46
2022-09-03T21:41:32.740Z,56.99
2022-09-03T21:44:41.494Z,57.96
2022-09-03T21:47:19.213Z,58.11
2022-09-03T21:50:16.768Z,58.55
2022-09-03T21:53:10.551Z,56.91
2022-09-03T21:56:38.223Z,57.81
2022-09-03T21:59:56.020Z,58.27
2022-09-03T22:02:32.881Z,57.91
2022-09-03T22:05:03.714Z,57.42
2022-09-03T22:07:57.384Z,58.56
2022-09-03T22:10:35.348Z,58.28
2022-09-03T22:13:31.310Z,59.07
2022-09-03T22:16:24.683Z,58.64
2022-09-03T22:18:54.151Z,58.92
2022-09-03T22:21:40.403Z,59.50
2022-09-03T22:25:02.770Z,59.90
2022-09-03T22:28:08.492Z,60.29
2022-09-03T22:31:05.940Z,60.18
2022-09-03T22:34:40.476Z,59.34
2022-09-03T22:37:44.790Z,60.02
2022-09-03T22:40:52.551Z,60.70
2022-09-03T22:43:37.669Z,61.10
2022-09-03T22:46:14.863Z,60.33
2022-09-03T22:49:19.679Z,61.25
2022-09-03T22:53:04.627Z,61.02
2022-09-03T22:55:34.063Z,61.48
2022-09-03T22:58:23.024Z,62.39
2022-09-03T23:01:08.206Z,61.74
2022-09-03T23:03:56.955Z,62.99
2022-09-03T23:06:36.419Z,63.45
2022-09-03T23:09:15.904Z,63.57
2022-09-03T23:12:41.819Z,64.29
2022-09-03T23:15:30.261Z,65.08
2022-09-03T23:18:27.171Z,64.72
2022-09-03T23:21:27.230Z,65.68
2022-09-03T23:24:14.454Z,66.00
2022-09-03T23:26:49.530Z,65.76
2022-09-03T23:29:40.417Z,66.16
2022-09-03T23:32:09.409Z,65.97
2022-09-03T23:34:40.666Z,66.21
2022-09-03T23:37:43.976Z,66.12
2022-09-03T23:40:47.377Z,66.14
2022-09-03T23:44:00.536Z,66.10
2022-09-03T23:47:28.394Z,64.81
2022-09-03T23:50:26.045Z,64.64
2022-09-03T23:53:37.001Z,64.83
2022-09-03T23:56:25.681Z,64.31
2022-09-03T23:59:33.585Z,64.50
